sensor_id;sensor_type;location;lat;lon;timestamp;P1;durP1;ratioP1;P2;durP2;ratioP2
52180;SDS011;38158;53.338;6.514;2023-06-14T00:01:24;3.05;;;0.90;;
52180;SDS011;38158;53.338;6.514;2023-06-14T00:03:50;4.75;;;1.05;;
52180;SDS011;38158;53.338;6.514;2023-06-14T00:06:16;5.45;;;1.08;;
52180;SDS011;38158;53.338;6.514;2023-06-14T00:08:42;7.43;;;1.07;;
52180;SDS011;38158;53.338;6.514;2023-06-14T00:11:08;5.05;;;1.17;;
52180;SDS011;38158;53.338;6.514;2023-06-14T00:13:34;1.67;;;0.80;;
52180;SDS011;38158;53.338;6.514;2023-06-14T00:16:00;2.40;;;0.98;;
52180;SDS011;38158;53.338;6.514;2023-06-14T00:18:25;8.05;;;1.20;;
52180;SDS011;38158;53.338;6.514;2023-06-14T00:20:54;4.47;;;0.93;;
52180;SDS011;38158;53.338;6.514;2023-06-14T00:23:21;4.15;;;0.80;;
52180;SDS011;38158;53.338;6.514;2023-06-14T00:25:47;1.83;;;1.00;;
52180;SDS011;38158;53.338;6.514;2023-06-14T00:28:13;4.50;;;1.25;;
52180;SDS011;38158;53.338;6.514;2023-06-14T00:30:38;2.75;;;0.73;;
52180;SDS011;38158;53.338;6.514;2023-06-14T00:33:04;2.70;;;1.00;;
52180;SDS011;38158;53.338;6.514;2023-06-14T00:35:30;4.55;;;1.10;;
52180;SDS011;38158;53.338;6.514;2023-06-14T00:37:56;2.30;;;0.60;;
52180;SDS011;38158;53.338;6.514;2023-06-14T00:40:21;1.70;;;0.70;;
52180;SDS011;38158;53.338;6.514;2023-06-14T00:42:47;5.05;;;1.02;;
52180;SDS011;38158;53.338;6.514;2023-06-14T00:45:13;2.63;;;0.90;;
52180;SDS011;38158;53.338;6.514;2023-06-14T00:47:39;2.83;;;0.77;;
52180;SDS011;38158;53.338;6.514;2023-06-14T00:50:07;2.00;;;0.98;;
52180;SDS011;38158;53.338;6.514;2023-06-14T00:52:34;1.50;;;0.77;;
52180;SDS011;38158;53.338;6.514;2023-06-14T00:55:01;2.23;;;1.03;;
52180;SDS011;38158;53.338;6.514;2023-06-14T00:57:27;2.97;;;0.80;;
52180;SDS011;38158;53.338;6.514;2023-06-14T01:02:20;2.25;;;0.80;;
52180;SDS011;38158;53.338;6.514;2023-06-14T01:04:47;2.80;;;0.75;;
52180;SDS011;38158;53.338;6.514;2023-06-14T01:15:38;1.23;;;0.47;;
52180;SDS011;38158;53.338;6.514;2023-06-14T01:18:05;5.35;;;1.10;;
52180;SDS011;38158;53.338;6.514;2023-06-14T01:20:32;4.10;;;0.60;;
52180;SDS011;38158;53.338;6.514;2023-06-14T01:23:01;3.45;;;1.02;;
52180;SDS011;38158;53.338;6.514;2023-06-14T01:25:27;5.13;;;0.95;;
52180;SDS011;38158;53.338;6.514;2023-06-14T01:27:53;2.80;;;0.98;;
52180;SDS011;38158;53.338;6.514;2023-06-14T01:30:23;2.28;;;0.85;;
52180;SDS011;38158;53.338;6.514;2023-06-14T01:32:50;3.85;;;0.77;;
52180;SDS011;38158;53.338;6.514;2023-06-14T01:35:18;2.85;;;0.75;;
52180;SDS011;38158;53.338;6.514;2023-06-14T01:37:44;3.17;;;1.00;;
52180;SDS011;38158;53.338;6.514;2023-06-14T01:40:13;1.65;;;0.70;;
52180;SDS011;38158;53.338;6.514;2023-06-14T01:42:40;5.63;;;0.82;;
52180;SDS011;38158;53.338;6.514;2023-06-14T01:45:07;3.08;;;0.88;;
52180;SDS011;38158;53.338;6.514;2023-06-14T01:47:35;2.25;;;0.80;;
52180;SDS011;38158;53.338;6.514;2023-06-14T01:50:02;7.25;;;1.40;;
52180;SDS011;38158;53.338;6.514;2023-06-14T01:54:54;1.83;;;0.80;;
52180;SDS011;38158;53.338;6.514;2023-06-14T01:57:20;4.63;;;1.00;;
52180;SDS011;38158;53.338;6.514;2023-06-14T01:59:47;1.73;;;0.80;;
52180;SDS011;38158;53.338;6.514;2023-06-14T02:02:13;2.05;;;0.98;;
52180;SDS011;38158;53.338;6.514;2023-06-14T02:04:40;4.95;;;1.30;;
52180;SDS011;38158;53.338;6.514;2023-06-14T02:07:06;5.95;;;1.10;;
52180;SDS011;38158;53.338;6.514;2023-06-14T02:09:32;2.55;;;1.17;;
52180;SDS011;38158;53.338;6.514;2023-06-14T02:11:58;3.45;;;1.15;;
52180;SDS011;38158;53.338;6.514;2023-06-14T02:14:24;4.30;;;1.10;;
52180;SDS011;38158;53.338;6.514;2023-06-14T02:16:51;2.78;;;1.20;;
52180;SDS011;38158;53.338;6.514;2023-06-14T02:19:18;4.40;;;0.90;;
52180;SDS011;38158;53.338;6.514;2023-06-14T02:21:45;2.55;;;0.90;;
52180;SDS011;38158;53.338;6.514;2023-06-14T02:24:11;3.37;;;1.10;;
52180;SDS011;38158;53.338;6.514;2023-06-14T02:26:37;3.55;;;1.15;;
52180;SDS011;38158;53.338;6.514;2023-06-14T02:29:08;2.67;;;1.10;;
52180;SDS011;38158;53.338;6.514;2023-06-14T02:31:36;5.00;;;1.00;;
52180;SDS011;38158;53.338;6.514;2023-06-14T02:34:01;6.03;;;1.25;;
52180;SDS011;38158;53.338;6.514;2023-06-14T02:36:27;2.83;;;1.17;;
52180;SDS011;38158;53.338;6.514;2023-06-14T02:38:55;1.80;;;0.93;;
52180;SDS011;38158;53.338;6.514;2023-06-14T02:41:25;3.47;;;1.30;;
52180;SDS011;38158;53.338;6.514;2023-06-14T02:43:52;4.57;;;1.30;;
52180;SDS011;38158;53.338;6.514;2023-06-14T02:46:18;6.28;;;1.30;;
52180;SDS011;38158;53.338;6.514;2023-06-14T02:48:43;4.65;;;1.20;;
52180;SDS011;38158;53.338;6.514;2023-06-14T02:51:10;3.83;;;1.60;;
52180;SDS011;38158;53.338;6.514;2023-06-14T02:53:35;3.38;;;1.50;;
52180;SDS011;38158;53.338;6.514;2023-06-14T02:56:02;4.20;;;1.33;;
52180;SDS011;38158;53.338;6.514;2023-06-14T02:58:29;3.97;;;1.20;;
52180;SDS011;38158;53.338;6.514;2023-06-14T03:00:55;3.50;;;1.35;;
52180;SDS011;38158;53.338;6.514;2023-06-14T03:03:21;6.32;;;1.50;;
52180;SDS011;38158;53.338;6.514;2023-06-14T03:05:49;2.67;;;1.20;;
52180;SDS011;38158;53.338;6.514;2023-06-14T03:08:16;4.40;;;1.98;;
52180;SDS011;38158;53.338;6.514;2023-06-14T03:10:44;3.50;;;1.65;;
52180;SDS011;38158;53.338;6.514;2023-06-14T03:13:13;3.13;;;1.42;;
52180;SDS011;38158;53.338;6.514;2023-06-14T03:15:41;4.45;;;1.23;;
52180;SDS011;38158;53.338;6.514;2023-06-14T03:18:10;4.68;;;1.58;;
52180;SDS011;38158;53.338;6.514;2023-06-14T03:20:37;5.75;;;1.35;;
52180;SDS011;38158;53.338;6.514;2023-06-14T03:23:04;4.35;;;1.50;;
52180;SDS011;38158;53.338;6.514;2023-06-14T03:25:30;4.97;;;1.63;;
52180;SDS011;38158;53.338;6.514;2023-06-14T03:30:23;4.75;;;1.60;;
52180;SDS011;38158;53.338;6.514;2023-06-14T03:32:49;6.03;;;1.33;;
52180;SDS011;38158;53.338;6.514;2023-06-14T03:35:17;3.80;;;1.70;;
52180;SDS011;38158;53.338;6.514;2023-06-14T03:37:43;6.65;;;2.03;;
52180;SDS011;38158;53.338;6.514;2023-06-14T03:40:11;3.58;;;1.83;;
52180;SDS011;38158;53.338;6.514;2023-06-14T03:42:38;5.10;;;1.60;;
52180;SDS011;38158;53.338;6.514;2023-06-14T03:45:04;3.72;;;1.52;;
52180;SDS011;38158;53.338;6.514;2023-06-14T03:47:31;4.30;;;1.73;;
52180;SDS011;38158;53.338;6.514;2023-06-14T03:49:57;4.32;;;1.65;;
52180;SDS011;38158;53.338;6.514;2023-06-14T03:52:23;4.20;;;1.63;;
52180;SDS011;38158;53.338;6.514;2023-06-14T03:54:50;5.00;;;1.50;;
52180;SDS011;38158;53.338;6.514;2023-06-14T03:57:16;4.45;;;1.83;;
52180;SDS011;38158;53.338;6.514;2023-06-14T03:59:42;4.15;;;1.80;;
52180;SDS011;38158;53.338;6.514;2023-06-14T04:02:08;4.10;;;1.80;;
52180;SDS011;38158;53.338;6.514;2023-06-14T04:04:40;3.05;;;1.77;;
52180;SDS011;38158;53.338;6.514;2023-06-14T04:07:09;6.85;;;1.30;;
52180;SDS011;38158;53.338;6.514;2023-06-14T04:09:36;3.53;;;1.65;;
52180;SDS011;38158;53.338;6.514;2023-06-14T04:12:02;3.50;;;1.70;;
52180;SDS011;38158;53.338;6.514;2023-06-14T04:14:28;9.60;;;1.30;;
52180;SDS011;38158;53.338;6.514;2023-06-14T04:16:55;4.82;;;1.90;;
52180;SDS011;38158;53.338;6.514;2023-06-14T04:19:21;5.38;;;1.80;;
52180;SDS011;38158;53.338;6.514;2023-06-14T04:21:47;3.65;;;1.80;;
52180;SDS011;38158;53.338;6.514;2023-06-14T04:24:13;4.05;;;1.60;;
52180;SDS011;38158;53.338;6.514;2023-06-14T04:26:42;3.90;;;1.52;;
52180;SDS011;38158;53.338;6.514;2023-06-14T04:29:13;4.43;;;1.80;;
52180;SDS011;38158;53.338;6.514;2023-06-14T04:31:45;3.25;;;1.30;;
52180;SDS011;38158;53.338;6.514;2023-06-14T04:34:12;4.72;;;1.60;;
52180;SDS011;38158;53.338;6.514;2023-06-14T04:36:44;4.35;;;1.88;;
52180;SDS011;38158;53.338;6.514;2023-06-14T04:39:21;7.10;;;2.30;;
52180;SDS011;38158;53.338;6.514;2023-06-14T04:41:47;5.00;;;2.10;;
52180;SDS011;38158;53.338;6.514;2023-06-14T04:44:16;6.65;;;1.83;;
52180;SDS011;38158;53.338;6.514;2023-06-14T04:46:43;5.25;;;2.25;;
52180;SDS011;38158;53.338;6.514;2023-06-14T04:49:12;4.78;;;1.88;;
52180;SDS011;38158;53.338;6.514;2023-06-14T04:51:40;4.22;;;1.80;;
52180;SDS011;38158;53.338;6.514;2023-06-14T04:54:07;3.83;;;1.50;;
52180;SDS011;38158;53.338;6.514;2023-06-14T04:56:35;6.20;;;1.92;;
52180;SDS011;38158;53.338;6.514;2023-06-14T04:59:02;4.97;;;1.75;;
52180;SDS011;38158;53.338;6.514;2023-06-14T05:01:31;4.68;;;2.15;;
52180;SDS011;38158;53.338;6.514;2023-06-14T05:03:58;4.60;;;1.80;;
52180;SDS011;38158;53.338;6.514;2023-06-14T05:06:24;4.63;;;1.60;;
52180;SDS011;38158;53.338;6.514;2023-06-14T05:08:51;3.78;;;1.52;;
52180;SDS011;38158;53.338;6.514;2023-06-14T05:11:17;3.95;;;1.88;;
52180;SDS011;38158;53.338;6.514;2023-06-14T05:13:42;5.43;;;2.00;;
52180;SDS011;38158;53.338;6.514;2023-06-14T05:16:09;4.53;;;1.98;;
52180;SDS011;38158;53.338;6.514;2023-06-14T05:18:36;3.92;;;1.98;;
52180;SDS011;38158;53.338;6.514;2023-06-14T05:21:03;4.50;;;2.20;;
52180;SDS011;38158;53.338;6.514;2023-06-14T05:23:32;4.80;;;2.13;;
52180;SDS011;38158;53.338;6.514;2023-06-14T05:25:57;3.92;;;1.65;;
52180;SDS011;38158;53.338;6.514;2023-06-14T05:28:23;4.28;;;2.08;;
52180;SDS011;38158;53.338;6.514;2023-06-14T05:30:49;4.15;;;1.92;;
52180;SDS011;38158;53.338;6.514;2023-06-14T05:33:16;3.97;;;1.75;;
52180;SDS011;38158;53.338;6.514;2023-06-14T05:35:42;11.52;;;2.35;;
52180;SDS011;38158;53.338;6.514;2023-06-14T05:38:07;5.53;;;2.25;;
52180;SDS011;38158;53.338;6.514;2023-06-14T05:40:33;6.50;;;2.45;;
52180;SDS011;38158;53.338;6.514;2023-06-14T05:42:59;7.07;;;2.30;;
52180;SDS011;38158;53.338;6.514;2023-06-14T05:45:25;5.18;;;2.30;;
52180;SDS011;38158;53.338;6.514;2023-06-14T05:47:50;4.07;;;2.08;;
52180;SDS011;38158;53.338;6.514;2023-06-14T05:50:17;7.55;;;3.25;;
52180;SDS011;38158;53.338;6.514;2023-06-14T05:52:43;4.97;;;1.92;;
52180;SDS011;38158;53.338;6.514;2023-06-14T05:55:08;6.53;;;1.88;;
52180;SDS011;38158;53.338;6.514;2023-06-14T05:57:37;4.10;;;1.80;;
52180;SDS011;38158;53.338;6.514;2023-06-14T06:00:03;4.47;;;2.03;;
52180;SDS011;38158;53.338;6.514;2023-06-14T06:02:42;4.63;;;2.10;;
52180;SDS011;38158;53.338;6.514;2023-06-14T06:05:09;8.25;;;1.98;;
52180;SDS011;38158;53.338;6.514;2023-06-14T06:07:35;5.53;;;2.10;;
52180;SDS011;38158;53.338;6.514;2023-06-14T06:12:28;3.55;;;1.73;;
52180;SDS011;38158;53.338;6.514;2023-06-14T06:14:54;5.80;;;1.60;;
52180;SDS011;38158;53.338;6.514;2023-06-14T06:17:20;6.75;;;1.70;;
52180;SDS011;38158;53.338;6.514;2023-06-14T06:19:46;9.70;;;1.95;;
52180;SDS011;38158;53.338;6.514;2023-06-14T06:22:11;3.17;;;1.45;;
52180;SDS011;38158;53.338;6.514;2023-06-14T06:24:37;3.83;;;1.77;;
52180;SDS011;38158;53.338;6.514;2023-06-14T06:27:03;3.90;;;1.80;;
52180;SDS011;38158;53.338;6.514;2023-06-14T06:29:29;5.13;;;1.70;;
52180;SDS011;38158;53.338;6.514;2023-06-14T06:31:54;5.78;;;1.90;;
52180;SDS011;38158;53.338;6.514;2023-06-14T06:34:21;3.80;;;1.75;;
52180;SDS011;38158;53.338;6.514;2023-06-14T06:36:47;4.88;;;1.63;;
52180;SDS011;38158;53.338;6.514;2023-06-14T06:39:13;4.40;;;1.70;;
52180;SDS011;38158;53.338;6.514;2023-06-14T06:41:39;3.72;;;1.80;;
52180;SDS011;38158;53.338;6.514;2023-06-14T06:44:06;4.65;;;1.60;;
52180;SDS011;38158;53.338;6.514;2023-06-14T06:46:32;4.88;;;1.83;;
52180;SDS011;38158;53.338;6.514;2023-06-14T06:48:59;3.67;;;1.52;;
52180;SDS011;38158;53.338;6.514;2023-06-14T06:51:25;4.13;;;1.98;;
52180;SDS011;38158;53.338;6.514;2023-06-14T06:53:54;5.07;;;1.65;;
52180;SDS011;38158;53.338;6.514;2023-06-14T06:56:20;4.72;;;1.63;;
52180;SDS011;38158;53.338;6.514;2023-06-14T06:58:48;3.20;;;1.55;;
52180;SDS011;38158;53.338;6.514;2023-06-14T07:01:15;3.40;;;1.42;;
52180;SDS011;38158;53.338;6.514;2023-06-14T07:03:41;9.13;;;3.27;;
52180;SDS011;38158;53.338;6.514;2023-06-14T07:06:07;6.45;;;2.30;;
52180;SDS011;38158;53.338;6.514;2023-06-14T07:08:33;4.72;;;1.63;;
52180;SDS011;38158;53.338;6.514;2023-06-14T07:10:59;3.92;;;1.55;;
52180;SDS011;38158;53.338;6.514;2023-06-14T07:13:25;3.40;;;1.75;;
52180;SDS011;38158;53.338;6.514;2023-06-14T07:15:54;2.83;;;1.38;;
52180;SDS011;38158;53.338;6.514;2023-06-14T07:18:22;3.40;;;1.63;;
52180;SDS011;38158;53.338;6.514;2023-06-14T07:20:47;2.88;;;1.23;;
52180;SDS011;38158;53.338;6.514;2023-06-14T07:23:13;7.63;;;1.70;;
52180;SDS011;38158;53.338;6.514;2023-06-14T07:25:39;4.55;;;1.33;;
52180;SDS011;38158;53.338;6.514;2023-06-14T07:28:04;3.20;;;1.50;;
52180;SDS011;38158;53.338;6.514;2023-06-14T07:30:30;3.38;;;1.48;;
52180;SDS011;38158;53.338;6.514;2023-06-14T07:32:56;3.97;;;1.23;;
52180;SDS011;38158;53.338;6.514;2023-06-14T07:35:22;7.00;;;1.20;;
52180;SDS011;38158;53.338;6.514;2023-06-14T07:37:47;5.63;;;1.67;;
52180;SDS011;38158;53.338;6.514;2023-06-14T07:40:15;3.35;;;1.50;;
52180;SDS011;38158;53.338;6.514;2023-06-14T07:42:40;2.22;;;1.20;;
52180;SDS011;38158;53.338;6.514;2023-06-14T07:45:07;3.05;;;1.35;;
52180;SDS011;38158;53.338;6.514;2023-06-14T07:47:33;3.83;;;1.40;;
52180;SDS011;38158;53.338;6.514;2023-06-14T07:49:59;5.30;;;1.50;;
52180;SDS011;38158;53.338;6.514;2023-06-14T07:52:25;3.67;;;1.42;;
52180;SDS011;38158;53.338;6.514;2023-06-14T07:54:50;2.30;;;0.98;;
52180;SDS011;38158;53.338;6.514;2023-06-14T07:57:16;3.92;;;1.38;;
52180;SDS011;38158;53.338;6.514;2023-06-14T07:59:42;2.85;;;1.00;;
52180;SDS011;38158;53.338;6.514;2023-06-14T08:02:07;3.25;;;1.50;;
52180;SDS011;38158;53.338;6.514;2023-06-14T08:04:33;4.15;;;1.35;;
52180;SDS011;38158;53.338;6.514;2023-06-14T08:06:59;2.80;;;1.52;;
52180;SDS011;38158;53.338;6.514;2023-06-14T08:09:25;4.10;;;1.42;;
52180;SDS011;38158;53.338;6.514;2023-06-14T08:11:53;3.40;;;1.40;;
52180;SDS011;38158;53.338;6.514;2023-06-14T08:14:19;4.43;;;1.55;;
52180;SDS011;38158;53.338;6.514;2023-06-14T08:16:45;3.20;;;1.38;;
52180;SDS011;38158;53.338;6.514;2023-06-14T08:19:10;5.70;;;1.60;;
52180;SDS011;38158;53.338;6.514;2023-06-14T08:21:36;2.97;;;1.27;;
52180;SDS011;38158;53.338;6.514;2023-06-14T08:24:02;3.95;;;1.48;;
52180;SDS011;38158;53.338;6.514;2023-06-14T08:26:29;2.75;;;1.35;;
52180;SDS011;38158;53.338;6.514;2023-06-14T08:28:55;5.83;;;1.50;;
52180;SDS011;38158;53.338;6.514;2023-06-14T08:31:21;2.78;;;1.33;;
52180;SDS011;38158;53.338;6.514;2023-06-14T08:33:47;7.13;;;1.80;;
52180;SDS011;38158;53.338;6.514;2023-06-14T08:36:13;2.45;;;1.10;;
52180;SDS011;38158;53.338;6.514;2023-06-14T08:38:39;4.00;;;1.17;;
52180;SDS011;38158;53.338;6.514;2023-06-14T08:41:05;4.53;;;1.50;;
52180;SDS011;38158;53.338;6.514;2023-06-14T08:43:31;5.50;;;1.13;;
52180;SDS011;38158;53.338;6.514;2023-06-14T08:45:58;3.97;;;1.30;;
52180;SDS011;38158;53.338;6.514;2023-06-14T08:48:27;3.58;;;1.58;;
52180;SDS011;38158;53.338;6.514;2023-06-14T08:50:56;4.70;;;1.40;;
52180;SDS011;38158;53.338;6.514;2023-06-14T08:53:32;3.67;;;1.38;;
52180;SDS011;38158;53.338;6.514;2023-06-14T08:56:02;3.92;;;1.27;;
52180;SDS011;38158;53.338;6.514;2023-06-14T08:58:30;2.47;;;1.20;;
52180;SDS011;38158;53.338;6.514;2023-06-14T09:01:02;5.22;;;1.50;;
52180;SDS011;38158;53.338;6.514;2023-06-14T09:03:29;5.18;;;1.42;;
52180;SDS011;38158;53.338;6.514;2023-06-14T09:05:56;3.42;;;1.52;;
52180;SDS011;38158;53.338;6.514;2023-06-14T09:08:24;3.30;;;1.48;;
52180;SDS011;38158;53.338;6.514;2023-06-14T09:13:16;8.65;;;1.67;;
52180;SDS011;38158;53.338;6.514;2023-06-14T09:15:42;4.73;;;1.30;;
52180;SDS011;38158;53.338;6.514;2023-06-14T09:18:08;3.63;;;1.10;;
52180;SDS011;38158;53.338;6.514;2023-06-14T09:20:34;3.45;;;1.30;;
52180;SDS011;38158;53.338;6.514;2023-06-14T09:23:00;6.80;;;1.80;;
52180;SDS011;38158;53.338;6.514;2023-06-14T09:25:27;2.35;;;1.20;;
52180;SDS011;38158;53.338;6.514;2023-06-14T09:27:53;4.70;;;1.50;;
52180;SDS011;38158;53.338;6.514;2023-06-14T09:30:19;3.08;;;1.52;;
52180;SDS011;38158;53.338;6.514;2023-06-14T09:35:12;4.25;;;1.52;;
52180;SDS011;38158;53.338;6.514;2023-06-14T09:37:42;2.67;;;1.35;;
52180;SDS011;38158;53.338;6.514;2023-06-14T09:40:08;8.32;;;1.50;;
52180;SDS011;38158;53.338;6.514;2023-06-14T09:42:34;8.32;;;1.45;;
52180;SDS011;38158;53.338;6.514;2023-06-14T09:45:02;5.68;;;1.63;;
52180;SDS011;38158;53.338;6.514;2023-06-14T09:47:28;6.32;;;1.63;;
52180;SDS011;38158;53.338;6.514;2023-06-14T09:49:54;3.95;;;1.50;;
52180;SDS011;38158;53.338;6.514;2023-06-14T09:52:21;2.95;;;1.50;;
52180;SDS011;38158;53.338;6.514;2023-06-14T09:54:48;6.57;;;1.83;;
52180;SDS011;38158;53.338;6.514;2023-06-14T09:59:57;3.58;;;1.35;;
52180;SDS011;38158;53.338;6.514;2023-06-14T10:02:25;3.65;;;1.40;;
52180;SDS011;38158;53.338;6.514;2023-06-14T10:05:06;3.53;;;1.40;;
52180;SDS011;38158;53.338;6.514;2023-06-14T10:07:42;6.07;;;1.20;;
52180;SDS011;38158;53.338;6.514;2023-06-14T10:10:17;2.85;;;1.40;;
52180;SDS011;38158;53.338;6.514;2023-06-14T10:12:43;7.53;;;1.58;;
52180;SDS011;38158;53.338;6.514;2023-06-14T10:15:09;3.00;;;1.33;;
52180;SDS011;38158;53.338;6.514;2023-06-14T10:17:43;4.20;;;1.52;;
52180;SDS011;38158;53.338;6.514;2023-06-14T10:20:17;4.10;;;1.70;;
52180;SDS011;38158;53.338;6.514;2023-06-14T10:22:47;2.92;;;1.67;;
52180;SDS011;38158;53.338;6.514;2023-06-14T10:25:28;5.47;;;1.63;;
52180;SDS011;38158;53.338;6.514;2023-06-14T10:33:31;4.38;;;1.50;;
52180;SDS011;38158;53.338;6.514;2023-06-14T10:36:23;5.20;;;1.60;;
52180;SDS011;38158;53.338;6.514;2023-06-14T10:39:04;3.60;;;1.40;;
52180;SDS011;38158;53.338;6.514;2023-06-14T10:41:31;2.65;;;1.35;;
52180;SDS011;38158;53.338;6.514;2023-06-14T10:44:23;3.75;;;1.58;;
52180;SDS011;38158;53.338;6.514;2023-06-14T10:47:00;2.35;;;1.00;;
52180;SDS011;38158;53.338;6.514;2023-06-14T10:49:45;3.22;;;1.35;;
52180;SDS011;38158;53.338;6.514;2023-06-14T10:52:14;3.13;;;1.40;;
52180;SDS011;38158;53.338;6.514;2023-06-14T10:55:27;5.78;;;1.50;;
52180;SDS011;38158;53.338;6.514;2023-06-14T10:57:36;2.10;;;1.00;;
52180;SDS011;38158;53.338;6.514;2023-06-14T11:00:07;4.25;;;1.50;;
52180;SDS011;38158;53.338;6.514;2023-06-14T11:05:34;4.10;;;1.30;;
52180;SDS011;38158;53.338;6.514;2023-06-14T11:11:21;3.80;;;1.33;;
52180;SDS011;38158;53.338;6.514;2023-06-14T11:13:48;4.00;;;1.02;;
52180;SDS011;38158;53.338;6.514;2023-06-14T11:16:16;4.18;;;1.60;;
52180;SDS011;38158;53.338;6.514;2023-06-14T11:18:44;6.35;;;1.45;;
52180;SDS011;38158;53.338;6.514;2023-06-14T11:21:10;5.63;;;1.38;;
52180;SDS011;38158;53.338;6.514;2023-06-14T11:23:36;5.03;;;1.40;;
52180;SDS011;38158;53.338;6.514;2023-06-14T11:26:02;3.23;;;1.30;;
52180;SDS011;38158;53.338;6.514;2023-06-14T11:28:39;2.50;;;1.23;;
52180;SDS011;38158;53.338;6.514;2023-06-14T11:31:06;2.70;;;1.40;;
52180;SDS011;38158;53.338;6.514;2023-06-14T11:36:01;5.25;;;1.38;;
52180;SDS011;38158;53.338;6.514;2023-06-14T11:38:27;4.55;;;1.60;;
52180;SDS011;38158;53.338;6.514;2023-06-14T11:40:53;4.70;;;1.67;;
52180;SDS011;38158;53.338;6.514;2023-06-14T11:43:23;3.67;;;1.35;;
52180;SDS011;38158;53.338;6.514;2023-06-14T11:45:51;6.32;;;1.83;;
52180;SDS011;38158;53.338;6.514;2023-06-14T11:48:18;3.83;;;1.85;;
52180;SDS011;38158;53.338;6.514;2023-06-14T11:50:44;3.70;;;1.73;;
52180;SDS011;38158;53.338;6.514;2023-06-14T11:53:09;4.47;;;1.77;;
52180;SDS011;38158;53.338;6.514;2023-06-14T11:55:38;5.20;;;1.83;;
52180;SDS011;38158;53.338;6.514;2023-06-14T11:58:05;10.40;;;2.05;;
52180;SDS011;38158;53.338;6.514;2023-06-14T12:00:31;4.47;;;1.52;;
52180;SDS011;38158;53.338;6.514;2023-06-14T12:02:57;3.20;;;1.50;;
52180;SDS011;38158;53.338;6.514;2023-06-14T12:05:24;7.90;;;1.40;;
52180;SDS011;38158;53.338;6.514;2023-06-14T12:07:57;5.20;;;1.58;;
52180;SDS011;38158;53.338;6.514;2023-06-14T12:10:27;3.67;;;1.60;;
52180;SDS011;38158;53.338;6.514;2023-06-14T12:12:56;5.25;;;2.00;;
52180;SDS011;38158;53.338;6.514;2023-06-14T12:15:23;4.15;;;1.30;;
52180;SDS011;38158;53.338;6.514;2023-06-14T12:17:49;5.10;;;1.27;;
52180;SDS011;38158;53.338;6.514;2023-06-14T12:20:15;6.63;;;1.30;;
52180;SDS011;38158;53.338;6.514;2023-06-14T12:23:03;4.78;;;1.42;;
52180;SDS011;38158;53.338;6.514;2023-06-14T12:25:30;5.30;;;1.73;;
52180;SDS011;38158;53.338;6.514;2023-06-14T12:28:04;3.67;;;1.45;;
52180;SDS011;38158;53.338;6.514;2023-06-14T12:30:31;5.18;;;1.73;;
52180;SDS011;38158;53.338;6.514;2023-06-14T12:32:57;5.23;;;1.43;;
52180;SDS011;38158;53.338;6.514;2023-06-14T12:35:22;11.17;;;1.83;;
52180;SDS011;38158;53.338;6.514;2023-06-14T12:37:48;8.90;;;1.50;;
52180;SDS011;38158;53.338;6.514;2023-06-14T12:40:14;4.93;;;1.23;;
52180;SDS011;38158;53.338;6.514;2023-06-14T12:42:40;3.17;;;1.37;;
52180;SDS011;38158;53.338;6.514;2023-06-14T12:45:06;2.63;;;0.73;;
52180;SDS011;38158;53.338;6.514;2023-06-14T12:47:32;2.13;;;0.90;;
52180;SDS011;38158;53.338;6.514;2023-06-14T12:49:58;2.53;;;0.90;;
52180;SDS011;38158;53.338;6.514;2023-06-14T12:52:23;4.27;;;1.17;;
52180;SDS011;38158;53.338;6.514;2023-06-14T12:54:49;3.13;;;1.03;;
52180;SDS011;38158;53.338;6.514;2023-06-14T12:57:15;4.32;;;1.17;;
52180;SDS011;38158;53.338;6.514;2023-06-14T12:59:41;5.07;;;1.07;;
52180;SDS011;38158;53.338;6.514;2023-06-14T13:02:13;1.73;;;0.80;;
52180;SDS011;38158;53.338;6.514;2023-06-14T13:04:40;2.08;;;1.00;;
52180;SDS011;38158;53.338;6.514;2023-06-14T13:07:06;2.23;;;0.80;;
52180;SDS011;38158;53.338;6.514;2023-06-14T13:09:31;2.27;;;0.83;;
52180;SDS011;38158;53.338;6.514;2023-06-14T13:11:57;4.33;;;1.40;;
52180;SDS011;38158;53.338;6.514;2023-06-14T13:14:23;2.83;;;1.27;;
52180;SDS011;38158;53.338;6.514;2023-06-14T13:16:49;5.07;;;1.73;;
52180;SDS011;38158;53.338;6.514;2023-06-14T13:19:15;5.40;;;1.20;;
52180;SDS011;38158;53.338;6.514;2023-06-14T13:21:41;8.10;;;1.30;;
52180;SDS011;38158;53.338;6.514;2023-06-14T13:24:06;4.20;;;1.48;;
52180;SDS011;38158;53.338;6.514;2023-06-14T13:26:32;3.03;;;1.20;;
52180;SDS011;38158;53.338;6.514;2023-06-14T13:28:59;4.18;;;0.98;;
52180;SDS011;38158;53.338;6.514;2023-06-14T13:31:25;2.60;;;1.07;;
52180;SDS011;38158;53.338;6.514;2023-06-14T13:33:50;4.30;;;1.40;;
52180;SDS011;38158;53.338;6.514;2023-06-14T13:36:16;3.27;;;1.67;;
52180;SDS011;38158;53.338;6.514;2023-06-14T13:38:42;3.77;;;1.63;;
52180;SDS011;38158;53.338;6.514;2023-06-14T13:41:08;8.30;;;1.70;;
52180;SDS011;38158;53.338;6.514;2023-06-14T13:43:33;3.53;;;1.70;;
52180;SDS011;38158;53.338;6.514;2023-06-14T13:45:59;2.83;;;1.47;;
52180;SDS011;38158;53.338;6.514;2023-06-14T13:48:25;8.38;;;1.48;;
52180;SDS011;38158;53.338;6.514;2023-06-14T13:50:51;4.03;;;1.70;;
52180;SDS011;38158;53.338;6.514;2023-06-14T13:53:17;4.05;;;1.98;;
52180;SDS011;38158;53.338;6.514;2023-06-14T13:55:43;4.40;;;1.60;;
52180;SDS011;38158;53.338;6.514;2023-06-14T13:58:08;3.70;;;2.10;;
52180;SDS011;38158;53.338;6.514;2023-06-14T14:00:34;3.23;;;1.57;;
52180;SDS011;38158;53.338;6.514;2023-06-14T14:03:05;4.03;;;1.73;;
52180;SDS011;38158;53.338;6.514;2023-06-14T14:05:31;5.65;;;1.83;;
52180;SDS011;38158;53.338;6.514;2023-06-14T14:07:57;4.43;;;2.03;;
52180;SDS011;38158;53.338;6.514;2023-06-14T14:10:26;6.90;;;1.80;;
52180;SDS011;38158;53.338;6.514;2023-06-14T14:12:52;5.55;;;1.83;;
52180;SDS011;38158;53.338;6.514;2023-06-14T14:15:18;4.85;;;1.38;;
52180;SDS011;38158;53.338;6.514;2023-06-14T14:17:44;3.00;;;1.30;;
52180;SDS011;38158;53.338;6.514;2023-06-14T14:20:10;3.93;;;1.93;;
52180;SDS011;38158;53.338;6.514;2023-06-14T14:22:41;3.03;;;1.35;;
52180;SDS011;38158;53.338;6.514;2023-06-14T14:25:07;4.63;;;1.75;;
52180;SDS011;38158;53.338;6.514;2023-06-14T14:27:33;3.55;;;1.80;;
52180;SDS011;38158;53.338;6.514;2023-06-14T14:29:59;6.30;;;1.60;;
52180;SDS011;38158;53.338;6.514;2023-06-14T14:32:25;2.93;;;1.67;;
52180;SDS011;38158;53.338;6.514;2023-06-14T14:34:51;5.27;;;1.80;;
52180;SDS011;38158;53.338;6.514;2023-06-14T14:37:16;6.73;;;1.37;;
52180;SDS011;38158;53.338;6.514;2023-06-14T14:39:43;6.07;;;1.70;;
52180;SDS011;38158;53.338;6.514;2023-06-14T14:42:10;5.20;;;1.55;;
52180;SDS011;38158;53.338;6.514;2023-06-14T14:47:03;4.88;;;2.03;;
52180;SDS011;38158;53.338;6.514;2023-06-14T14:49:30;4.85;;;1.85;;
52180;SDS011;38158;53.338;6.514;2023-06-14T14:54:22;3.47;;;1.83;;
52180;SDS011;38158;53.338;6.514;2023-06-14T14:56:48;6.13;;;2.28;;
52180;SDS011;38158;53.338;6.514;2023-06-14T14:59:14;4.75;;;1.60;;
52180;SDS011;38158;53.338;6.514;2023-06-14T15:01:40;9.43;;;2.10;;
52180;SDS011;38158;53.338;6.514;2023-06-14T15:04:06;4.33;;;1.50;;
52180;SDS011;38158;53.338;6.514;2023-06-14T15:06:31;3.83;;;1.97;;
52180;SDS011;38158;53.338;6.514;2023-06-14T15:09:00;5.50;;;1.70;;
52180;SDS011;38158;53.338;6.514;2023-06-14T15:11:26;4.33;;;1.73;;
52180;SDS011;38158;53.338;6.514;2023-06-14T15:13:52;3.30;;;1.80;;
52180;SDS011;38158;53.338;6.514;2023-06-14T15:16:18;4.53;;;1.97;;
52180;SDS011;38158;53.338;6.514;2023-06-14T15:18:44;2.53;;;1.23;;
52180;SDS011;38158;53.338;6.514;2023-06-14T15:21:09;5.87;;;1.63;;
52180;SDS011;38158;53.338;6.514;2023-06-14T15:23:35;3.63;;;1.33;;
52180;SDS011;38158;53.338;6.514;2023-06-14T15:26:01;4.97;;;1.67;;
52180;SDS011;38158;53.338;6.514;2023-06-14T15:28:26;8.13;;;1.80;;
52180;SDS011;38158;53.338;6.514;2023-06-14T15:33:22;7.10;;;1.73;;
52180;SDS011;38158;53.338;6.514;2023-06-14T15:35:48;4.03;;;1.90;;